This is the latest recevied weather packets stored in our database for station/object DG4MJS-10. If no packets are shown the sender has not sent any weather packets the latest 10 day(s).
| Time | Temp. | Humidity | Pressure | Rain* | Wind** | Luminosity | Snow |
|---|---|---|---|---|---|---|---|
| 1787755465 | 23.33° C | 62% | 1016.2 hPa | - | - | - | - |
| 1787754565 | 22.78° C | 61% | 1016.1 hPa | - | - | - | - |
| 1787753665 | 24.44° C | 53% | 1016.1 hPa | - | - | - | - |
| 1787752765 | 23.89° C | 56% | 1016.2 hPa | - | - | - | - |
| 1787751865 | 24.44° C | 53% | 1016.5 hPa | - | - | - | - |
| 1787750965 | 24.44° C | 56% | 1016.6 hPa | - | - | - | - |
| 1787750064 | 22.78° C | 60% | 1016.6 hPa | - | - | - | - |
| 1787749164 | 22.22° C | 64% | 1016.7 hPa | - | - | - | - |
| 1787748264 | 23.33° C | 60% | 1016.6 hPa | - | - | - | - |
| 1787747364 | 21.67° C | 67% | 1016.7 hPa | - | - | - | - |
| 1787746464 | 22.78° C | 59% | 1016.7 hPa | - | - | - | - |
| 1787745564 | 21.67° C | 64% | 1016.7 hPa | - | - | - | - |
| 1787744663 | 21.11° C | 70% | 1016.8 hPa | - | - | - | - |
| 1787743763 | 21.67° C | 71% | 1016.9 hPa | - | - | - | - |
| 1787742863 | 21.11° C | 72% | 1017.1 hPa | - | - | - | - |
| 1787741963 | 21.67° C | 70% | 1017.3 hPa | - | - | - | - |
| 1787741063 | 21.11° C | 70% | 1017.3 hPa | - | - | - | - |
| 1787740163 | 22.22° C | 69% | 1017.3 hPa | - | - | - | - |
| 1787739264 | 21.11° C | 71% | 1017.3 hPa | - | - | - | - |
| 1787738364 | 21.67° C | 71% | 1017.5 hPa | - | - | - | - |
| 1787737464 | 21.11° C | 68% | 1017.6 hPa | - | - | - | - |
| 1787736564 | 21.11° C | 72% | 1017.6 hPa | - | - | - | - |
| 1787735664 | 20.56° C | 72% | 1017.9 hPa | - | - | - | - |
| 1787734764 | 20.56° C | 72% | 1017.8 hPa | - | - | - | - |
| 1787733864 | 20.56° C | 71% | 1017.8 hPa | - | - | - | - |
* Rain since midnight (hover to see other rain measurements)
** Current wind speed in m/s (hover to see current wind gust speed)